Flugplatz Walldorf Airport

Für Walldorf Airport sind keine METAR/TAF Berichte vorhanden.
Es werden die Flugwettermeldungen vom Flugplatz Mannheim-City Airport in 21 km Entfernung angezeigt.

Bericht für EDFM

vom 22.02. um 20:50 UTC

Wind 12 kt aus 210°

Sichtweite 9700 m

aufgebrochene Bewölkung in 4400 ft

bedeckt in 10000 ft

Temperatur 12°C

Taupunkt 6°C

Luftfeuchtigkeit 67%

Luftdruck 990 hPa

EDFM 222050Z AUTO 21012KT 180V240 9999 // BKN044/// OVC100/// 12/06 Q0990

Prognose für EDFM

vom 22.02. um 17:00 UTC

Zwischen 18:00 UTC und 21:00 UTC

Wind 15 kt aus 200° in Böen 25 kt

Sichtweite 9700 m

aufgelockert bewölkt in 1000 ft

aufgebrochene Bewölkung in 1500 ft


Zwischen 18:00 UTC und 21:00 UTC zeitweise

Wind 20 kt aus 200° in Böen 35 kt

Regenschauer

aufgebrochene Bewölkung in 2500 ft

TAF EDFM 221700Z 2218/2221 20015G25KT 9999 SCT010 BKN015 TEMPO 2218/2221 20020G35KT SHRA BKN025CB
Impressum